Time;durP1;ratioP1;P1;durP2;ratioP2;P2;SDS_P1;SDS_P2;PMS_P1;PMS_P2;Temp;Humidity;BMP_temperature;BMP_pressure;BME280_temperature;BME280_humidity;BME280_pressure;Samples;Min_cycle;Max_cycle;Signal;HPM_P1;HPM_P2
2023/09/11 00:01:33;;;;;;;6.10;5.80;;;24.90;53.20;;;;;;4995619;28;20200;-73
2023/09/11 00:03:59;;;;;;;6.60;6.27;;;24.90;53.20;;;;;;4995678;28;20215;-73
2023/09/11 00:06:25;;;;;;;6.00;5.70;;;24.80;53.20;;;;;;4997060;28;20269;-73
2023/09/11 00:08:51;;;;;;;6.50;6.23;;;24.80;53.10;;;;;;4995471;28;20563;-73
2023/09/11 00:11:17;;;;;;;6.60;6.30;;;24.80;53.10;;;;;;5008757;28;20455;-74
2023/09/11 00:13:43;;;;;;;7.30;6.90;;;24.80;53.20;;;;;;4994176;28;20444;-74
2023/09/11 00:16:08;;;;;;;6.77;6.47;;;24.80;53.20;;;;;;4996278;28;20178;-73
2023/09/11 00:18:34;;;;;;;6.67;6.37;;;24.80;53.20;;;;;;4995881;28;20690;-74
2023/09/11 00:21:00;;;;;;;6.73;6.40;;;24.80;53.20;;;;;;4994677;28;20183;-74
2023/09/11 00:23:26;;;;;;;7.10;6.60;;;24.80;53.20;;;;;;4995331;28;20551;-73
2023/09/11 00:25:51;;;;;;;5.90;5.60;;;24.80;53.20;;;;;;4993876;28;20654;-73
2023/09/11 00:28:17;;;;;;;6.47;6.17;;;24.80;53.20;;;;;;4991209;28;20855;-74
2023/09/11 00:30:42;;;;;;;6.33;6.03;;;24.80;53.20;;;;;;4994186;28;20850;-74
2023/09/11 00:33:08;;;;;;;6.67;6.33;;;24.80;53.20;;;;;;4994944;28;20294;-74
2023/09/11 00:35:34;;;;;;;6.37;6.07;;;24.80;53.20;;;;;;4996124;28;20561;-73
2023/09/11 00:37:59;;;;;;;5.50;5.20;;;24.80;53.20;;;;;;4994406;28;20186;-73
2023/09/11 00:40:25;;;;;;;6.30;6.00;;;24.80;53.20;;;;;;4994173;28;20566;-73
2023/09/11 00:42:51;;;;;;;6.60;6.20;;;24.80;53.20;;;;;;4993597;28;20282;-74
2023/09/11 00:45:16;;;;;;;6.60;6.30;;;24.80;53.20;;;;;;4995278;28;20184;-74
2023/09/11 00:47:45;;;;;;;6.30;5.93;;;24.80;53.20;;;;;;4992933;28;20218;-73
2023/09/11 00:50:13;;;;;;;6.87;6.47;;;24.80;53.20;;;;;;4995624;28;20196;-73
2023/09/11 00:52:39;;;;;;;7.43;7.03;;;24.80;53.40;;;;;;4993139;28;20464;-72
2023/09/11 00:55:07;;;;;;;5.97;5.70;;;24.80;53.20;;;;;;4992234;28;20500;-73
2023/09/11 00:57:32;;;;;;;5.97;5.77;;;24.80;53.20;;;;;;4992969;28;21199;-73
2023/09/11 00:59:58;;;;;;;6.20;5.83;;;24.80;53.20;;;;;;4993902;28;20574;-74
2023/09/11 01:02:23;;;;;;;6.30;6.00;;;24.80;53.20;;;;;;4992029;28;20191;-74
2023/09/11 01:04:49;;;;;;;7.07;6.67;;;24.80;53.20;;;;;;4993842;28;20175;-73
2023/09/11 01:07:16;;;;;;;6.10;5.70;;;24.80;53.30;;;;;;4990832;28;20671;-73
2023/09/11 01:09:42;;;;;;;6.57;6.20;;;24.80;53.30;;;;;;4991732;28;20341;-74
2023/09/11 01:12:08;;;;;;;6.37;5.90;;;24.80;53.20;;;;;;4990328;28;20557;-72
2023/09/11 01:14:37;;;;;;;6.37;6.00;;;24.80;53.20;;;;;;4991602;28;20196;-74
2023/09/11 01:17:07;;;;;;;5.67;5.37;;;24.80;53.20;;;;;;4990996;28;20593;-73
2023/09/11 01:20:09;;;;;;;6.67;6.27;;;24.80;53.30;;;;;;4991402;28;22556;-73
2023/09/11 01:23:12;;;;;;;7.13;6.73;;;24.80;53.30;;;;;;4993750;28;20436;-74
2023/09/11 01:25:58;;;;;;;6.47;6.10;;;24.80;53.30;;;;;;4993867;28;20841;-74
2023/09/11 01:28:31;;;;;;;6.20;5.90;;;24.80;53.30;;;;;;4988938;28;20451;-73
2023/09/11 01:30:59;;;;;;;5.60;5.40;;;24.80;53.30;;;;;;4992967;28;20447;-71
2023/09/11 01:33:24;;;;;;;5.70;5.40;;;24.80;53.30;;;;;;4989722;28;20510;-73
2023/09/11 01:35:51;;;;;;;6.07;5.77;;;24.80;53.30;;;;;;4993585;28;20432;-73
2023/09/11 01:38:17;;;;;;;6.40;6.00;;;24.80;53.30;;;;;;4991582;28;20203;-73
2023/09/11 01:40:45;;;;;;;6.50;6.20;;;24.80;53.40;;;;;;4991620;28;20448;-73
2023/09/11 01:43:13;;;;;;;6.57;6.27;;;24.80;53.30;;;;;;4992370;28;20440;-73
2023/09/11 01:45:40;;;;;;;6.60;6.30;;;24.80;53.30;;;;;;4993348;28;21345;-74
2023/09/11 01:48:07;;;;;;;6.27;5.90;;;24.80;53.30;;;;;;4992816;28;20437;-73
2023/09/11 01:50:35;;;;;;;6.57;6.27;;;24.80;54.10;;;;;;4990285;28;20528;-73
2023/09/11 01:53:04;;;;;;;6.20;5.73;;;24.80;53.30;;;;;;4995849;28;20980;-74
2023/09/11 01:55:31;;;;;;;6.60;6.20;;;24.80;53.30;;;;;;4995444;28;21048;-73
2023/09/11 01:57:57;;;;;;;6.80;6.50;;;24.80;53.40;;;;;;4996317;28;20924;-72
2023/09/11 02:00:22;;;;;;;6.07;5.77;;;24.80;53.30;;;;;;4994356;28;20443;-73
2023/09/11 02:02:51;;;;;;;6.50;6.20;;;24.80;53.40;;;;;;4991759;28;21053;-73
2023/09/11 02:05:17;;;;;;;6.60;6.30;;;24.80;53.40;;;;;;4994740;28;20179;-73
2023/09/11 02:07:43;;;;;;;6.17;5.77;;;24.80;53.40;;;;;;4993970;28;20910;-74
2023/09/11 02:10:09;;;;;;;6.50;6.20;;;24.80;53.30;;;;;;4995154;28;20443;-74
2023/09/11 02:12:34;;;;;;;6.30;5.90;;;24.80;53.30;;;;;;4995067;28;21114;-74
2023/09/11 02:15:00;;;;;;;6.10;5.90;;;24.80;53.30;;;;;;4994692;28;20263;-72
2023/09/11 02:17:25;;;;;;;6.40;6.10;;;24.80;53.30;;;;;;4993729;28;20202;-73
2023/09/11 02:19:51;;;;;;;6.33;6.03;;;24.80;53.40;;;;;;4994701;28;20246;-74
2023/09/11 02:22:17;;;;;;;6.30;6.00;;;24.80;53.30;;;;;;4996649;28;20685;-74
2023/09/11 02:24:42;;;;;;;7.10;6.70;;;24.80;53.30;;;;;;4994736;28;20194;-74
2023/09/11 02:27:08;;;;;;;6.27;6.00;;;24.80;53.30;;;;;;4993343;28;20198;-73
2023/09/11 02:29:33;;;;;;;6.67;6.37;;;24.80;53.30;;;;;;4995779;28;20202;-73
2023/09/11 02:32:00;;;;;;;6.20;5.90;;;24.80;53.40;;;;;;4992852;28;20207;-74
2023/09/11 02:34:26;;;;;;;6.47;6.07;;;24.80;53.30;;;;;;4993805;28;20233;-74
2023/09/11 02:36:51;;;;;;;6.47;6.17;;;24.80;53.40;;;;;;4995700;28;20437;-74
2023/09/11 02:39:17;;;;;;;5.80;5.60;;;24.80;53.40;;;;;;4994890;28;20631;-74
2023/09/11 02:41:42;;;;;;;6.30;6.00;;;24.80;53.40;;;;;;4994040;28;20565;-72
2023/09/11 02:44:08;;;;;;;6.30;6.00;;;24.80;53.50;;;;;;4995994;28;20218;-73
2023/09/11 02:46:33;;;;;;;6.03;5.73;;;24.80;53.40;;;;;;4992066;28;20659;-73
2023/09/11 02:48:59;;;;;;;6.87;6.17;;;24.80;53.40;;;;;;4991484;28;20196;-73
2023/09/11 02:51:25;;;;;;;6.37;6.07;;;24.80;53.40;;;;;;4992379;28;20269;-73
2023/09/11 02:53:51;;;;;;;6.10;5.80;;;24.80;53.40;;;;;;4993920;28;20187;-73
2023/09/11 02:56:16;;;;;;;6.60;6.20;;;24.80;53.40;;;;;;4992209;28;20994;-73
2023/09/11 02:58:42;;;;;;;6.67;6.33;;;24.80;53.40;;;;;;4993526;28;20658;-73
2023/09/11 03:01:07;;;;;;;6.53;6.23;;;24.80;53.40;;;;;;4994507;28;20737;-72
2023/09/11 03:03:33;;;;;;;6.27;5.97;;;24.80;53.40;;;;;;4993891;28;20745;-73
2023/09/11 03:06:00;;;;;;;6.47;6.03;;;24.80;53.50;;;;;;4994976;28;20191;-73
2023/09/11 03:08:26;;;;;;;6.03;5.73;;;24.80;53.40;;;;;;4995378;28;20202;-73
2023/09/11 03:10:53;;;;;;;6.97;6.57;;;24.80;53.50;;;;;;4994028;28;20448;-73
2023/09/11 03:13:21;;;;;;;6.40;6.13;;;24.80;53.40;;;;;;4993833;28;20567;-73
2023/09/11 03:15:47;;;;;;;5.80;5.57;;;24.80;53.40;;;;;;4991709;28;20958;-73
2023/09/11 03:18:12;;;;;;;6.43;6.13;;;24.80;53.50;;;;;;4989886;28;20448;-73
2023/09/11 03:20:38;;;;;;;5.57;5.27;;;24.80;53.60;;;;;;4992424;28;20222;-72
2023/09/11 03:23:04;;;;;;;5.90;5.53;;;24.80;53.40;;;;;;4995669;28;20187;-72
2023/09/11 03:25:34;;;;;;;5.70;5.40;;;24.80;53.40;;;;;;4993570;28;20546;-73
2023/09/11 03:28:00;;;;;;;6.40;6.03;;;24.80;53.50;;;;;;4992169;28;20658;-73
2023/09/11 03:30:26;;;;;;;5.87;5.67;;;24.80;53.50;;;;;;4993454;28;21004;-73
2023/09/11 03:32:51;;;;;;;6.33;6.03;;;24.80;53.40;;;;;;4989793;28;20571;-73
2023/09/11 03:35:17;;;;;;;6.40;6.10;;;24.80;53.50;;;;;;4994946;28;20266;-73
2023/09/11 03:37:42;;;;;;;6.87;6.47;;;24.80;53.40;;;;;;4992068;28;20211;-73
2023/09/11 03:40:10;;;;;;;6.10;5.80;;;24.80;53.40;;;;;;4994144;28;20227;-74
2023/09/11 03:42:35;;;;;;;7.57;7.17;;;24.80;53.40;;;;;;5007608;28;20538;-71
2023/09/11 03:45:01;;;;;;;6.07;5.77;;;24.80;53.50;;;;;;4992994;28;20448;-70
2023/09/11 03:47:27;;;;;;;5.73;5.53;;;24.80;53.40;;;;;;4994038;28;20341;-70
2023/09/11 03:49:52;;;;;;;6.30;6.00;;;24.80;53.40;;;;;;4993944;28;20205;-71
2023/09/11 03:52:18;;;;;;;6.10;5.73;;;24.80;53.40;;;;;;4990563;28;20590;-73
2023/09/11 03:54:43;;;;;;;6.03;5.73;;;24.80;53.50;;;;;;4992078;28;20250;-72
2023/09/11 03:57:09;;;;;;;6.93;6.63;;;24.80;53.40;;;;;;4991708;28;21335;-73
2023/09/11 03:59:34;;;;;;;6.03;5.70;;;24.80;53.50;;;;;;5007397;28;20187;-73
2023/09/11 04:02:00;;;;;;;7.00;6.60;;;24.80;53.50;;;;;;4987641;28;20593;-73
2023/09/11 04:04:26;;;;;;;6.60;6.30;;;24.80;53.50;;;;;;4994790;28;20580;-73
2023/09/11 04:06:51;;;;;;;6.63;6.17;;;24.80;53.50;;;;;;4992386;28;20601;-72
2023/09/11 04:09:17;;;;;;;6.13;5.83;;;24.80;53.50;;;;;;4990513;28;21090;-73
2023/09/11 04:11:42;;;;;;;6.10;5.80;;;24.80;53.50;;;;;;4989764;28;20265;-73
2023/09/11 04:14:08;;;;;;;6.53;6.23;;;24.80;53.40;;;;;;4994635;28;20314;-74
2023/09/11 04:16:33;;;;;;;6.80;6.50;;;24.80;53.40;;;;;;5005242;28;20191;-73
2023/09/11 04:18:59;;;;;;;7.47;6.97;;;24.80;53.40;;;;;;4992879;28;20176;-73
2023/09/11 04:21:24;;;;;;;6.30;6.10;;;24.80;53.30;;;;;;4989684;28;20642;-73
2023/09/11 04:23:50;;;;;;;6.80;6.50;;;24.90;53.30;;;;;;4983667;28;20274;-74
2023/09/11 04:26:16;;;;;;;6.77;6.33;;;24.80;53.30;;;;;;4990276;28;20218;-75
2023/09/11 04:28:42;;;;;;;6.17;5.87;;;24.80;53.20;;;;;;4990478;28;20738;-74
2023/09/11 04:31:08;;;;;;;5.87;5.57;;;24.90;53.30;;;;;;4988946;28;20429;-74
2023/09/11 04:33:34;;;;;;;8.20;7.53;;;24.90;53.30;;;;;;4988302;28;20203;-76
2023/09/11 04:36:00;;;;;;;6.97;6.67;;;24.90;53.20;;;;;;4992159;28;20207;-74
2023/09/11 04:38:26;;;;;;;6.50;6.20;;;24.90;53.10;;;;;;4989352;28;21006;-74
2023/09/11 04:40:57;;;;;;;6.57;6.17;;;24.90;53.10;;;;;;4993228;28;20194;-73
2023/09/11 04:43:24;;;;;;;7.00;6.60;;;24.90;53.10;;;;;;4993537;28;20193;-74
2023/09/11 04:45:50;;;;;;;6.30;6.00;;;24.90;53.10;;;;;;4994160;28;20440;-73
2023/09/11 04:48:15;;;;;;;6.93;6.40;;;24.90;53.10;;;;;;4990846;28;20444;-73
2023/09/11 04:50:41;;;;;;;6.80;6.50;;;24.90;53.20;;;;;;4990145;28;20214;-73
2023/09/11 04:53:06;;;;;;;6.70;6.40;;;24.90;53.20;;;;;;4992258;28;20548;-75
2023/09/11 04:55:32;;;;;;;6.70;6.30;;;24.90;53.20;;;;;;4988933;28;20229;-72
2023/09/11 04:57:57;;;;;;;7.00;6.60;;;24.90;53.20;;;;;;4993381;28;20838;-72
2023/09/11 05:00:24;;;;;;;7.13;6.73;;;24.90;53.30;;;;;;4992235;28;20251;-72
2023/09/11 05:02:50;;;;;;;7.30;6.80;;;24.90;53.20;;;;;;4987488;28;20183;-73
2023/09/11 05:05:16;;;;;;;5.77;5.47;;;24.90;53.30;;;;;;4988851;28;20974;-73
2023/09/11 05:07:41;;;;;;;7.30;6.90;;;24.90;53.30;;;;;;4987289;28;20441;-73
2023/09/11 05:10:08;;;;;;;7.33;6.80;;;24.90;53.30;;;;;;4990646;28;20203;-73
2023/09/11 05:12:34;;;;;;;6.10;5.80;;;24.90;53.30;;;;;;4989962;28;20270;-73
2023/09/11 05:15:00;;;;;;;7.50;7.00;;;24.90;53.30;;;;;;4994673;28;20456;-73
2023/09/11 05:17:25;;;;;;;8.70;7.20;;;24.90;53.30;;;;;;4984179;28;20543;-73
2023/09/11 05:19:51;;;;;;;7.00;6.60;;;24.90;53.30;;;;;;4989283;28;20191;-72
2023/09/11 05:22:16;;;;;;;7.60;7.10;;;24.90;53.20;;;;;;4990095;28;20187;-74
2023/09/11 05:24:42;;;;;;;6.57;6.23;;;24.90;53.20;;;;;;4989499;28;20646;-74
2023/09/11 05:27:07;;;;;;;8.20;7.70;;;24.90;53.20;;;;;;4993962;28;20610;-74
2023/09/11 05:29:33;;;;;;;7.77;7.27;;;24.90;53.20;;;;;;4997167;28;20187;-72
2023/09/11 05:31:59;;;;;;;7.03;6.63;;;24.90;53.20;;;;;;4994886;28;20207;-74
2023/09/11 05:34:24;;;;;;;7.60;7.20;;;24.90;53.20;;;;;;4996223;28;20194;-74
2023/09/11 05:36:50;;;;;;;7.13;6.57;;;24.90;53.30;;;;;;4992144;28;20286;-74
2023/09/11 05:39:15;;;;;;;7.80;7.30;;;24.90;53.30;;;;;;4994407;28;20215;-73
2023/09/11 05:41:41;;;;;;;7.20;6.80;;;24.90;53.30;;;;;;4990495;28;21019;-74
2023/09/11 05:44:06;;;;;;;7.67;7.27;;;24.90;53.30;;;;;;4997242;28;20175;-73
2023/09/11 05:46:32;;;;;;;7.93;7.40;;;24.90;53.30;;;;;;4995112;28;20513;-74
2023/09/11 05:48:57;;;;;;;7.00;6.70;;;24.90;53.30;;;;;;4995887;28;20692;-74
2023/09/11 05:51:23;;;;;;;7.10;6.80;;;24.90;53.30;;;;;;4992504;28;20199;-75
2023/09/11 05:53:48;;;;;;;7.30;6.63;;;24.90;53.30;;;;;;4997859;28;20211;-73
2023/09/11 05:56:14;;;;;;;7.03;6.53;;;24.90;53.30;;;;;;4993436;28;20284;-74
2023/09/11 05:58:41;;;;;;;7.63;7.23;;;24.90;53.30;;;;;;4989215;28;20277;-74
2023/09/11 06:01:07;;;;;;;6.90;6.60;;;24.90;53.40;;;;;;4989917;28;20642;-75
2023/09/11 06:03:32;;;;;;;7.10;6.70;;;24.90;53.30;;;;;;4991936;28;20510;-74
2023/09/11 06:06:01;;;;;;;7.47;7.13;;;24.90;53.30;;;;;;4995699;28;20199;-73
2023/09/11 06:08:26;;;;;;;7.27;6.97;;;24.90;53.30;;;;;;4994645;28;20192;-74
2023/09/11 06:10:52;;;;;;;6.83;6.53;;;24.90;53.30;;;;;;4995733;28;20498;-74
2023/09/11 06:13:18;;;;;;;7.60;7.10;;;24.90;53.30;;;;;;4995071;28;20227;-74
2023/09/11 06:15:43;;;;;;;7.43;6.60;;;24.90;53.40;;;;;;4993746;28;20281;-73
2023/09/11 06:18:09;;;;;;;6.60;6.20;;;24.90;53.30;;;;;;4995006;28;20709;-74
2023/09/11 06:20:35;;;;;;;6.67;6.27;;;24.90;53.30;;;;;;4996025;28;20207;-74
2023/09/11 06:23:01;;;;;;;6.63;6.33;;;24.90;53.30;;;;;;5001653;28;20323;-74
2023/09/11 06:25:26;;;;;;;7.10;6.60;;;24.90;53.30;;;;;;4996557;28;20318;-74
2023/09/11 06:27:52;;;;;;;6.63;6.33;;;24.90;53.30;;;;;;4998564;28;20199;-74
2023/09/11 06:30:17;;;;;;;6.70;6.30;;;24.90;53.30;;;;;;4998378;28;20187;-74
2023/09/11 06:32:43;;;;;;;7.33;6.93;;;24.90;53.30;;;;;;5001210;28;20208;-74
2023/09/11 06:35:09;;;;;;;7.17;6.67;;;24.90;53.30;;;;;;5001178;28;20187;-73
2023/09/11 06:37:35;;;;;;;6.90;6.50;;;24.90;53.30;;;;;;4999208;28;20187;-73
2023/09/11 06:40:01;;;;;;;6.90;6.50;;;24.90;53.30;;;;;;4998769;28;20611;-74
2023/09/11 06:42:26;;;;;;;7.40;6.90;;;24.90;53.20;;;;;;5002126;28;20187;-72
2023/09/11 06:44:54;;;;;;;7.00;6.50;;;24.90;53.30;;;;;;4998269;28;20534;-72
2023/09/11 06:47:19;;;;;;;6.30;5.83;;;24.90;53.20;;;;;;4999778;28;20305;-73
2023/09/11 06:49:45;;;;;;;7.03;6.63;;;24.90;53.30;;;;;;5001572;28;20535;-73
2023/09/11 06:52:11;;;;;;;6.67;6.37;;;24.90;53.20;;;;;;5002658;28;20206;-74
2023/09/11 06:54:36;;;;;;;7.17;6.67;;;24.90;53.20;;;;;;5001550;28;20230;-73
2023/09/11 06:57:02;;;;;;;6.50;6.20;;;24.90;53.30;;;;;;4999751;28;20670;-74
2023/09/11 06:59:27;;;;;;;6.77;6.40;;;24.90;53.20;;;;;;4999555;28;20186;-74
2023/09/11 07:01:53;;;;;;;6.83;6.43;;;24.90;53.20;;;;;;4996948;28;20278;-73
2023/09/11 07:04:18;;;;;;;6.37;6.07;;;24.90;53.20;;;;;;5000469;28;20676;-74
2023/09/11 07:06:44;;;;;;;6.40;6.10;;;24.90;53.20;;;;;;5001449;28;20720;-74
2023/09/11 07:09:10;;;;;;;7.40;7.00;;;24.90;53.20;;;;;;5001835;28;20711;-73
2023/09/11 07:11:36;;;;;;;6.17;5.87;;;24.90;53.20;;;;;;4994566;28;20186;-74
2023/09/11 07:14:02;;;;;;;6.90;6.50;;;24.90;53.20;;;;;;4999548;28;20433;-73
2023/09/11 07:16:28;;;;;;;7.20;6.70;;;24.90;53.20;;;;;;4997238;28;20219;-71
2023/09/11 07:18:54;;;;;;;6.40;6.10;;;24.90;53.20;;;;;;4996486;28;20472;-73
2023/09/11 07:21:19;;;;;;;6.90;6.40;;;25.00;53.30;;;;;;4998770;28;20186;-74
2023/09/11 07:23:45;;;;;;;6.80;6.40;;;25.00;53.30;;;;;;4996752;28;20210;-75
2023/09/11 07:26:10;;;;;;;6.47;6.17;;;24.90;53.20;;;;;;4997662;28;20658;-74
2023/09/11 07:28:56;;;;;;;6.60;6.20;;;24.90;53.20;;;;;;4998594;28;20195;-74
2023/09/11 07:31:22;;;;;;;7.00;6.40;;;24.90;53.10;;;;;;4988792;28;20330;-74
2023/09/11 07:33:47;;;;;;;6.03;5.73;;;24.90;53.20;;;;;;4999662;28;20461;-73
2023/09/11 07:36:13;;;;;;;6.10;5.80;;;24.90;53.20;;;;;;4999661;28;20936;-74
2023/09/11 07:38:44;;;;;;;6.50;6.03;;;24.90;53.20;;;;;;4994029;28;21494;-75
2023/09/11 07:41:10;;;;;;;6.67;6.23;;;25.00;53.30;;;;;;4998867;28;20179;-75
2023/09/11 07:43:36;;;;;;;7.00;6.70;;;24.90;53.20;;;;;;5000265;28;20436;-76
2023/09/11 07:46:01;;;;;;;7.03;6.33;;;25.00;53.30;;;;;;4997765;28;20447;-76
2023/09/11 07:48:27;;;;;;;6.23;5.73;;;25.00;53.30;;;;;;4999307;28;20198;-76
2023/09/11 07:50:56;;;;;;;6.23;5.90;;;24.90;53.10;;;;;;4994905;28;20190;-77
2023/09/11 07:53:22;;;;;;;6.23;5.93;;;25.00;53.20;;;;;;5005782;28;20346;-76
2023/09/11 07:55:48;;;;;;;6.23;5.90;;;24.90;53.10;;;;;;4992418;28;20542;-76
2023/09/11 07:58:14;;;;;;;6.50;6.20;;;25.00;53.20;;;;;;4993211;28;20854;-76
2023/09/11 08:00:39;;;;;;;6.80;6.30;;;24.90;53.10;;;;;;4994677;28;20187;-76
2023/09/11 08:03:05;;;;;;;6.23;5.93;;;24.90;53.10;;;;;;4989103;28;20467;-76
2023/09/11 08:05:31;;;;;;;6.00;5.70;;;24.90;53.10;;;;;;4986845;28;21446;-76
2023/09/11 08:08:01;;;;;;;6.87;6.47;;;25.00;53.30;;;;;;4995307;28;20310;-75
2023/09/11 08:10:27;;;;;;;6.57;6.17;;;25.00;53.30;;;;;;4991019;28;20378;-76
2023/09/11 08:12:52;;;;;;;6.47;6.17;;;25.00;53.30;;;;;;4988110;28;20983;-76
2023/09/11 08:15:18;;;;;;;6.50;6.20;;;24.90;53.10;;;;;;4996592;28;20387;-76
2023/09/11 08:17:44;;;;;;;6.40;6.10;;;24.90;53.10;;;;;;4994488;28;20530;-76
2023/09/11 08:20:10;;;;;;;5.90;5.60;;;25.00;53.30;;;;;;4997264;28;20184;-76
2023/09/11 08:22:35;;;;;;;6.87;6.37;;;25.00;53.30;;;;;;4996091;28;20312;-76
2023/09/11 08:25:01;;;;;;;6.10;5.80;;;25.00;53.20;;;;;;4995937;28;20184;-77
2023/09/11 08:27:27;;;;;;;6.47;6.07;;;25.00;53.20;;;;;;4996262;28;20691;-76
2023/09/11 08:29:55;;;;;;;6.10;5.80;;;25.00;53.30;;;;;;4999848;28;20205;-75
2023/09/11 08:32:21;;;;;;;6.50;6.20;;;25.00;53.30;;;;;;4998987;28;20464;-77
2023/09/11 08:34:46;;;;;;;6.60;6.00;;;25.00;53.30;;;;;;5011337;28;20439;-76
2023/09/11 08:37:15;;;;;;;6.20;5.90;;;25.00;53.30;;;;;;5000931;28;20280;-76
2023/09/11 08:39:40;;;;;;;5.90;5.60;;;25.00;53.30;;;;;;4994436;28;20307;-76
2023/09/11 08:42:08;;;;;;;6.13;5.83;;;25.00;53.30;;;;;;4994832;28;20512;-76
2023/09/11 08:44:34;;;;;;;5.80;5.50;;;25.00;53.30;;;;;;4997952;28;20275;-76
2023/09/11 08:47:02;;;;;;;6.23;5.93;;;25.00;53.30;;;;;;4994555;28;21062;-76
2023/09/11 08:49:33;;;;;;;5.57;5.20;;;25.00;53.30;;;;;;4993879;28;20191;-75
2023/09/11 08:52:02;;;;;;;5.70;5.40;;;25.00;53.30;;;;;;4998291;28;20452;-77
2023/09/11 08:54:34;;;;;;;6.07;5.70;;;25.00;53.20;;;;;;5000179;28;20497;-77
2023/09/11 08:57:00;;;;;;;5.97;5.67;;;25.00;53.20;;;;;;5000042;28;20437;-77
2023/09/11 08:59:28;;;;;;;6.07;5.77;;;25.00;53.30;;;;;;5001063;28;20783;-77
2023/09/11 09:01:55;;;;;;;5.80;5.50;;;25.00;53.20;;;;;;5000877;28;20440;-77
2023/09/11 09:04:21;;;;;;;6.10;5.70;;;25.00;53.20;;;;;;4999325;28;20761;-77
2023/09/11 09:06:48;;;;;;;6.40;6.10;;;25.00;53.20;;;;;;4997242;28;20767;-76
2023/09/11 09:09:13;;;;;;;5.83;5.53;;;25.00;53.20;;;;;;4996199;28;20778;-77
2023/09/11 09:11:45;;;;;;;5.93;5.63;;;25.00;53.30;;;;;;5002481;28;20425;-77
2023/09/11 09:14:13;;;;;;;5.63;5.43;;;25.00;53.20;;;;;;5002795;28;20564;-77
2023/09/11 09:16:38;;;;;;;5.90;5.60;;;25.00;53.30;;;;;;4999240;28;20938;-77
2023/09/11 09:19:04;;;;;;;5.87;5.57;;;25.00;53.20;;;;;;5002619;28;20711;-77
2023/09/11 09:21:29;;;;;;;6.20;5.90;;;25.00;53.20;;;;;;4996691;28;20662;-77
2023/09/11 09:23:55;;;;;;;5.77;5.57;;;25.00;53.20;;;;;;5003873;28;20568;-77
2023/09/11 09:26:22;;;;;;;6.40;6.10;;;25.00;53.20;;;;;;5002488;28;20193;-77
2023/09/11 09:28:48;;;;;;;5.67;5.37;;;25.00;53.20;;;;;;5001859;28;20195;-77
2023/09/11 09:31:24;;;;;;;6.00;5.70;;;25.00;53.20;;;;;;5015162;28;20444;-77
2023/09/11 09:33:52;;;;;;;6.20;5.90;;;25.00;53.20;;;;;;5000594;28;20200;-75
2023/09/11 09:36:18;;;;;;;5.87;5.57;;;25.00;53.20;;;;;;5000737;28;20899;-77
2023/09/11 09:38:44;;;;;;;5.43;5.20;;;25.00;53.10;;;;;;5001307;28;20444;-77
2023/09/11 09:41:10;;;;;;;5.87;5.57;;;25.00;53.20;;;;;;5003195;28;20178;-76
2023/09/11 09:43:36;;;;;;;5.80;5.60;;;25.00;53.10;;;;;;4999037;28;20196;-75
2023/09/11 09:46:17;;;;;;;6.10;5.80;;;25.00;53.10;;;;;;5000508;28;20443;-74
2023/09/11 09:48:43;;;;;;;5.50;5.20;;;25.00;53.20;;;;;;4999975;28;20203;-75
2023/09/11 09:51:08;;;;;;;6.30;6.00;;;25.00;53.20;;;;;;4990161;28;20442;-75
2023/09/11 09:53:41;;;;;;;5.57;5.37;;;25.00;53.20;;;;;;4993774;28;20314;-74
2023/09/11 09:56:08;;;;;;;5.83;5.60;;;25.00;53.10;;;;;;5013305;28;20234;-74
2023/09/11 09:58:41;;;;;;;6.63;6.33;;;25.00;53.10;;;;;;5016685;28;20469;-75
2023/09/11 10:01:09;;;;;;;5.33;5.03;;;25.00;53.10;;;;;;4998515;28;21019;-74
2023/09/11 10:03:46;;;;;;;5.73;5.40;;;25.00;53.10;;;;;;4996930;28;20540;-74
2023/09/11 10:06:16;;;;;;;5.93;5.63;;;25.00;53.10;;;;;;4994022;28;20427;-74
2023/09/11 10:08:42;;;;;;;5.53;5.23;;;25.00;53.10;;;;;;4998137;28;20919;-74
2023/09/11 10:11:24;;;;;;;5.40;5.10;;;25.00;53.10;;;;;;4998949;28;20493;-74
2023/09/11 10:13:50;;;;;;;5.57;5.27;;;25.00;53.10;;;;;;4994054;28;20204;-74
2023/09/11 10:16:16;;;;;;;6.10;5.90;;;25.00;53.10;;;;;;4999503;28;20431;-74
2023/09/11 10:18:45;;;;;;;6.17;5.73;;;25.10;53.20;;;;;;5000813;28;20192;-74
2023/09/11 10:21:11;;;;;;;6.67;6.17;;;25.00;53.10;;;;;;5000524;28;20923;-74
2023/09/11 10:23:37;;;;;;;6.17;5.87;;;25.10;53.20;;;;;;4999012;28;20440;-74
2023/09/11 10:26:07;;;;;;;6.20;5.90;;;25.00;53.10;;;;;;4994404;28;20443;-73
2023/09/11 10:28:42;;;;;;;6.10;5.73;;;25.10;53.10;;;;;;4996449;28;20631;-74
2023/09/11 10:31:32;;;;;;;5.30;5.10;;;25.00;53.10;;;;;;4998828;28;20553;-74
2023/09/11 10:34:01;;;;;;;5.27;5.07;;;25.10;53.10;;;;;;4998886;28;20487;-74
2023/09/11 10:36:36;;;;;;;5.03;4.83;;;25.10;53.10;;;;;;5011653;28;20847;-74
2023/09/11 10:39:04;;;;;;;5.47;5.17;;;25.00;53.00;;;;;;5011764;28;20975;-74
2023/09/11 10:41:30;;;;;;;5.53;5.33;;;25.10;53.10;;;;;;4998090;28;20466;-75
2023/09/11 10:43:56;;;;;;;5.53;5.30;;;25.10;53.10;;;;;;4998561;28;20433;-74
2023/09/11 10:46:22;;;;;;;5.07;4.87;;;25.10;53.10;;;;;;4996873;28;20455;-75
2023/09/11 10:48:50;;;;;;;5.27;5.07;;;25.10;53.10;;;;;;4995078;28;20674;-75
2023/09/11 10:51:16;;;;;;;5.73;5.43;;;25.10;53.00;;;;;;5013048;28;20203;-74
2023/09/11 10:53:42;;;;;;;6.10;5.70;;;25.10;53.00;;;;;;4996833;28;20817;-75
2023/09/11 10:56:08;;;;;;;5.57;5.27;;;25.10;53.00;;;;;;4999178;28;20337;-74
2023/09/11 10:58:34;;;;;;;5.27;5.00;;;25.10;53.00;;;;;;5000032;28;21496;-74
2023/09/11 11:01:03;;;;;;;5.23;5.03;;;25.10;53.00;;;;;;4995443;28;20187;-74
2023/09/11 11:03:30;;;;;;;4.70;4.50;;;25.10;53.00;;;;;;4989235;28;20443;-75
2023/09/11 11:05:59;;;;;;;5.17;4.97;;;25.10;53.00;;;;;;5013936;28;20502;-74
2023/09/11 11:08:24;;;;;;;4.90;4.70;;;25.10;53.00;;;;;;4996342;28;20445;-74
2023/09/11 11:10:51;;;;;;;5.50;5.20;;;25.10;53.00;;;;;;4997739;28;20849;-77
2023/09/11 11:13:18;;;;;;;5.80;5.47;;;25.10;53.00;;;;;;5002524;28;20214;-74
2023/09/11 11:15:43;;;;;;;5.40;5.10;;;25.10;53.00;;;;;;5000739;28;20564;-73
2023/09/11 11:18:11;;;;;;;6.07;5.80;;;25.10;53.00;;;;;;4995833;28;20524;-74
2023/09/11 11:20:38;;;;;;;5.70;5.40;;;25.10;53.00;;;;;;5007281;28;21968;-74
2023/09/11 11:23:12;;;;;;;5.50;5.23;;;25.10;53.00;;;;;;4997895;28;20994;-74
2023/09/11 11:25:41;;;;;;;5.20;5.00;;;25.10;53.10;;;;;;4991821;28;20440;-75
2023/09/11 11:28:15;;;;;;;5.20;4.97;;;25.10;53.00;;;;;;4996559;28;20568;-75
2023/09/11 11:30:43;;;;;;;5.30;5.10;;;25.10;53.00;;;;;;4987695;28;20476;-74
2023/09/11 11:33:13;;;;;;;5.20;5.00;;;25.10;53.00;;;;;;4995888;28;20461;-75
2023/09/11 11:35:45;;;;;;;5.30;5.07;;;25.10;53.00;;;;;;4998966;28;20436;-75
2023/09/11 11:38:18;;;;;;;5.33;5.13;;;25.10;53.00;;;;;;5000244;28;20430;-75
2023/09/11 11:40:45;;;;;;;6.13;5.83;;;25.10;53.00;;;;;;5000547;28;20813;-75
2023/09/11 11:43:11;;;;;;;5.63;5.30;;;25.10;53.00;;;;;;4997043;28;20442;-74
2023/09/11 11:45:41;;;;;;;5.30;4.97;;;25.10;53.00;;;;;;5002448;28;20433;-75
2023/09/11 11:48:10;;;;;;;4.93;4.73;;;25.10;53.00;;;;;;4997088;28;20990;-74
2023/09/11 11:50:43;;;;;;;5.37;5.03;;;25.10;53.00;;;;;;4997316;28;20467;-76
2023/09/11 11:53:16;;;;;;;5.10;4.90;;;25.10;53.00;;;;;;5000061;28;20872;-70
2023/09/11 11:55:43;;;;;;;5.20;4.90;;;25.10;53.00;;;;;;5002151;28;20479;-70
2023/09/11 11:58:13;;;;;;;4.80;4.60;;;25.10;53.00;;;;;;5002486;28;20806;-70
2023/09/11 12:00:40;;;;;;;5.40;5.10;;;25.10;53.00;;;;;;5004273;28;20449;-70
2023/09/11 12:03:07;;;;;;;4.57;4.37;;;25.10;53.00;;;;;;5001535;28;20490;-70
2023/09/11 12:05:36;;;;;;;5.10;4.90;;;25.10;53.00;;;;;;5005205;28;20432;-71
2023/09/11 12:08:03;;;;;;;5.47;5.17;;;25.20;53.10;;;;;;5002580;28;20789;-70
2023/09/11 12:10:29;;;;;;;5.27;4.97;;;25.10;53.70;;;;;;5003958;28;20439;-70
2023/09/11 12:12:55;;;;;;;5.07;4.77;;;25.10;53.00;;;;;;5003427;28;20456;-70
2023/09/11 12:15:21;;;;;;;5.27;5.07;;;25.20;53.10;;;;;;5000382;28;21133;-71
2023/09/11 12:17:50;;;;;;;5.00;4.70;;;25.20;53.00;;;;;;5005811;28;20278;-70
2023/09/11 12:20:21;;;;;;;5.40;5.10;;;25.10;53.00;;;;;;5002555;28;20917;-70
2023/09/11 12:22:48;;;;;;;5.63;5.33;;;25.20;53.10;;;;;;5001636;28;20441;-75
2023/09/11 12:25:14;;;;;;;5.03;4.83;;;25.20;53.00;;;;;;5002511;28;20808;-73
2023/09/11 12:27:41;;;;;;;5.60;5.30;;;25.10;53.00;;;;;;4998629;28;20518;-70
2023/09/11 12:30:08;;;;;;;5.20;4.90;;;25.20;53.00;;;;;;5003362;28;20455;-71
2023/09/11 12:32:33;;;;;;;5.13;4.93;;;25.10;52.90;;;;;;4999819;28;20511;-71
2023/09/11 12:35:00;;;;;;;5.37;5.10;;;25.20;53.00;;;;;;4998998;28;20952;-70
2023/09/11 12:37:25;;;;;;;4.30;4.10;;;25.20;53.00;;;;;;4997816;28;20175;-73
2023/09/11 12:39:51;;;;;;;5.13;4.93;;;25.20;53.00;;;;;;5001982;28;20477;-72
2023/09/11 12:42:17;;;;;;;5.70;5.40;;;25.20;53.00;;;;;;5004170;28;20196;-71
2023/09/11 12:44:42;;;;;;;5.70;5.50;;;25.20;53.00;;;;;;5001077;28;20468;-70
2023/09/11 12:47:08;;;;;;;4.70;4.50;;;25.20;53.00;;;;;;5003596;28;20221;-70